createdAt,value
2019-03-03T00:00:21.513Z,4.07
2019-03-03T00:02:53.460Z,3.97
2019-03-03T00:05:23.886Z,3.63
2019-03-03T00:07:54.190Z,4.23
2019-03-03T00:10:24.612Z,4.67
2019-03-03T00:12:54.986Z,3.83
2019-03-03T00:15:26.511Z,4.27
2019-03-03T00:17:56.812Z,4.20
2019-03-03T00:20:27.133Z,4.80
2019-03-03T00:22:57.461Z,4.30
2019-03-03T00:25:27.686Z,4.10
2019-03-03T00:27:58.053Z,4.70
2019-03-03T00:30:30.423Z,4.50
2019-03-03T00:33:00.717Z,4.33
2019-03-03T00:35:31.693Z,4.20
2019-03-03T00:38:25.034Z,5.50
2019-03-03T00:41:19.064Z,4.40
2019-03-03T00:44:13.866Z,4.93
2019-03-03T00:47:01.931Z,4.87
2019-03-03T00:49:51.219Z,4.97
2019-03-03T00:52:26.986Z,4.13
2019-03-03T00:55:22.367Z,5.17
2019-03-03T00:58:14.608Z,4.23
2019-03-03T01:00:50.988Z,5.67
2019-03-03T01:03:24.784Z,5.53
2019-03-03T01:06:03.825Z,6.23
2019-03-03T01:08:53.246Z,6.63
2019-03-03T01:11:42.582Z,5.90
2019-03-03T01:14:40.690Z,5.53
2019-03-03T01:17:28.848Z,5.57
2019-03-03T01:20:06.357Z,5.80
2019-03-03T01:22:54.855Z,5.17
2019-03-03T01:25:25.139Z,6.20
2019-03-03T01:27:55.443Z,6.30
2019-03-03T01:30:25.800Z,4.93
2019-03-03T01:32:56.222Z,6.13
2019-03-03T01:35:26.528Z,5.33
2019-03-03T01:37:58.670Z,5.70
2019-03-03T01:40:29.065Z,5.77
2019-03-03T01:42:59.474Z,6.00
2019-03-03T01:45:29.784Z,6.00
2019-03-03T01:48:00.156Z,6.77
2019-03-03T01:50:30.648Z,5.57
2019-03-03T01:53:01.110Z,5.73
2019-03-03T01:55:31.505Z,5.83
2019-03-03T01:58:01.800Z,5.67
2019-03-03T02:00:33.465Z,5.87
2019-03-03T02:03:04.988Z,6.10
2019-03-03T02:05:36.700Z,5.63
2019-03-03T02:08:08.113Z,5.23
2019-03-03T02:10:40.259Z,6.27
2019-03-03T02:13:10.593Z,5.50
2019-03-03T02:15:41.080Z,7.13
2019-03-03T02:18:11.531Z,6.53
2019-03-03T02:20:41.929Z,6.00
2019-03-03T02:23:32.893Z,6.57
2019-03-03T02:25:51.844Z,7.00
2019-03-03T02:28:22.219Z,8.43
2019-03-03T02:30:52.546Z,7.30
2019-03-03T02:33:23.212Z,6.77
2019-03-03T02:35:53.635Z,7.07
2019-03-03T02:38:25.790Z,6.37
2019-03-03T02:41:01.501Z,7.03
2019-03-03T02:43:38.432Z,6.73
2019-03-03T02:46:08.774Z,7.23
2019-03-03T02:48:40.198Z,6.60
2019-03-03T02:51:10.572Z,8.50
2019-03-03T02:53:41.097Z,7.87
2019-03-03T02:56:12.987Z,7.57
2019-03-03T02:58:43.448Z,7.70
2019-03-03T03:01:18.590Z,7.03
2019-03-03T03:03:48.944Z,7.43
2019-03-03T03:06:25.962Z,7.57
2019-03-03T03:09:14.527Z,6.50
2019-03-03T03:12:10.844Z,7.17
2019-03-03T03:15:18.608Z,7.13
2019-03-03T03:18:06.655Z,7.53
2019-03-03T03:20:56.292Z,7.13
2019-03-03T03:23:33.832Z,7.90
2019-03-03T03:26:26.241Z,7.77
2019-03-03T03:29:23.932Z,7.40
2019-03-03T03:32:22.323Z,7.73
2019-03-03T03:35:00.919Z,7.60
2019-03-03T03:37:57.521Z,7.00
2019-03-03T03:40:35.350Z,8.57
2019-03-03T03:43:12.653Z,7.67
2019-03-03T03:46:09.309Z,8.33
2019-03-03T03:49:13.878Z,7.90
2019-03-03T03:52:12.016Z,7.37
2019-03-03T03:55:04.253Z,7.70
2019-03-03T03:57:45.396Z,8.17
2019-03-03T04:00:27.732Z,7.60
2019-03-03T04:03:14.448Z,7.80
2019-03-03T04:06:07.166Z,8.73
2019-03-03T04:08:44.471Z,8.90
2019-03-03T04:11:33.840Z,8.07
2019-03-03T04:14:27.333Z,9.27
2019-03-03T04:17:22.618Z,8.80
2019-03-03T04:20:11.939Z,8.73
2019-03-03T04:23:01.138Z,9.77
2019-03-03T04:25:49.247Z,9.57
2019-03-03T04:28:25.908Z,9.70
2019-03-03T04:31:05.465Z,10.33
2019-03-03T04:34:03.837Z,10.97
2019-03-03T04:37:05.344Z,10.73
2019-03-03T04:39:44.521Z,10.93
2019-03-03T04:42:24.941Z,11.60
2019-03-03T04:45:11.139Z,11.40
2019-03-03T04:48:03.204Z,13.13
2019-03-03T04:50:42.485Z,12.87
2019-03-03T04:53:37.913Z,13.10
2019-03-03T04:56:33.395Z,13.10
2019-03-03T04:59:31.929Z,14.27
2019-03-03T05:02:15.837Z,15.37
2019-03-03T05:05:02.926Z,15.70
2019-03-03T05:07:58.163Z,14.20
2019-03-03T05:10:56.739Z,15.37
2019-03-03T05:13:31.525Z,14.83
2019-03-03T05:16:26.452Z,15.63
2019-03-03T05:19:15.786Z,16.40
2019-03-03T05:21:50.383Z,16.70
2019-03-03T05:24:20.696Z,14.63
2019-03-03T05:26:50.999Z,15.47
2019-03-03T05:29:21.370Z,16.40
2019-03-03T05:31:51.734Z,17.73
2019-03-03T05:34:22.142Z,14.93
2019-03-03T05:36:59.873Z,16.13
2019-03-03T05:39:30.184Z,16.53
2019-03-03T05:42:00.553Z,16.43
2019-03-03T05:44:30.849Z,16.10
2019-03-03T05:47:01.168Z,17.50
2019-03-03T05:49:31.436Z,18.50
2019-03-03T05:52:03.145Z,17.47
2019-03-03T05:54:35.521Z,18.17
2019-03-03T05:57:05.899Z,17.73
2019-03-03T05:59:36.269Z,17.80
2019-03-03T06:02:06.567Z,18.07
2019-03-03T06:04:36.857Z,18.60
2019-03-03T06:07:07.213Z,19.43
2019-03-03T06:09:37.591Z,18.13
2019-03-03T06:12:08.052Z,18.90
2019-03-03T06:14:38.449Z,17.17
2019-03-03T06:17:08.762Z,17.00
2019-03-03T06:19:40.740Z,17.17
2019-03-03T06:22:11.146Z,14.90
2019-03-03T06:24:41.658Z,14.73
2019-03-03T06:27:12.171Z,14.33
2019-03-03T06:29:44.436Z,15.70
2019-03-03T06:32:16.156Z,14.43
2019-03-03T06:34:49.315Z,14.87
2019-03-03T06:37:19.772Z,14.10
2019-03-03T06:39:50.652Z,15.30
2019-03-03T06:42:21.024Z,15.33
2019-03-03T06:44:53.193Z,13.97
2019-03-03T06:47:23.637Z,13.43
2019-03-03T06:49:54.085Z,14.83
2019-03-03T06:52:27.007Z,13.57
2019-03-03T06:54:57.521Z,13.97
2019-03-03T06:57:28.060Z,12.30
2019-03-03T06:59:58.566Z,12.47
2019-03-03T07:02:28.991Z,11.30
2019-03-03T07:04:59.656Z,9.93
2019-03-03T07:07:30.175Z,8.27
2019-03-03T07:10:00.595Z,8.00
2019-03-03T07:12:31.124Z,6.50
2019-03-03T07:17:29.668Z,5.20
2019-03-03T07:20:00.088Z,5.30
2019-03-03T07:22:37.765Z,4.97
2019-03-03T07:25:10.053Z,4.83
2019-03-03T07:27:40.517Z,5.10
2019-03-03T07:30:13.157Z,5.87
2019-03-03T07:33:09.983Z,4.43
2019-03-03T07:35:42.070Z,5.70
2019-03-03T07:38:15.652Z,4.87
2019-03-03T07:40:47.866Z,5.43
2019-03-03T07:43:18.574Z,6.40
2019-03-03T07:45:49.036Z,5.77
2019-03-03T07:48:19.769Z,6.23
2019-03-03T07:50:50.368Z,6.30
2019-03-03T07:53:22.337Z,5.17
2019-03-03T07:55:52.801Z,5.13
2019-03-03T07:58:23.189Z,4.80
2019-03-03T08:00:53.589Z,4.83
2019-03-03T08:03:24.148Z,4.33
2019-03-03T08:05:54.611Z,4.37
2019-03-03T08:08:25.041Z,3.77
2019-03-03T08:10:56.489Z,3.70
2019-03-03T08:13:26.905Z,4.17
2019-03-03T08:15:57.694Z,3.17
2019-03-03T08:18:29.874Z,3.07
2019-03-03T08:21:06.083Z,3.37
2019-03-03T08:23:36.942Z,3.30
2019-03-03T08:26:10.525Z,2.57
2019-03-03T08:28:49.523Z,2.33
2019-03-03T08:31:20.004Z,2.57
2019-03-03T08:33:51.533Z,3.17
2019-03-03T08:36:40.277Z,3.13
2019-03-03T08:39:13.756Z,2.33
2019-03-03T08:41:48.467Z,2.60
2019-03-03T08:44:46.773Z,2.60
2019-03-03T08:47:39.528Z,2.60
2019-03-03T08:50:27.289Z,3.17
2019-03-03T08:53:06.840Z,4.03
2019-03-03T08:55:47.161Z,2.90
2019-03-03T08:58:42.999Z,3.07
2019-03-03T09:01:42.213Z,2.27
2019-03-03T09:04:28.557Z,3.17
2019-03-03T09:07:21.202Z,3.33
2019-03-03T09:09:58.464Z,3.17
2019-03-03T09:12:37.539Z,4.00
2019-03-03T09:15:19.857Z,3.20
2019-03-03T09:18:05.925Z,3.33
2019-03-03T09:20:57.998Z,3.30
2019-03-03T09:23:50.140Z,2.97
2019-03-03T09:26:55.197Z,3.07
2019-03-03T09:29:39.071Z,2.93
2019-03-03T09:32:20.879Z,2.63
2019-03-03T09:35:11.976Z,2.57
2019-03-03T09:38:10.500Z,2.80
2019-03-03T09:41:00.003Z,3.10
2019-03-03T09:43:54.990Z,3.80
2019-03-03T09:46:47.367Z,2.83
2019-03-03T09:49:29.964Z,3.43
2019-03-03T09:52:18.173Z,2.90
2019-03-03T09:55:19.615Z,2.80
2019-03-03T09:58:14.854Z,2.97
2019-03-03T10:01:09.784Z,2.83
2019-03-03T10:04:05.223Z,2.40
2019-03-03T10:06:53.202Z,2.60
2019-03-03T10:09:35.112Z,2.10
2019-03-03T10:12:26.079Z,2.33
2019-03-03T10:15:14.452Z,2.50
2019-03-03T10:17:57.056Z,3.80
2019-03-03T10:20:49.085Z,3.30
2019-03-03T10:23:38.499Z,3.57
2019-03-03T10:26:30.617Z,2.40
2019-03-03T10:29:07.637Z,1.87
2019-03-03T10:31:58.563Z,2.23
2019-03-03T10:34:50.770Z,2.63
2019-03-03T10:37:40.067Z,2.53
2019-03-03T10:40:41.610Z,2.00
2019-03-03T10:43:37.979Z,1.90
2019-03-03T10:46:28.238Z,2.50
2019-03-03T10:49:12.860Z,2.07
2019-03-03T10:52:04.029Z,1.77
2019-03-03T10:54:57.595Z,2.00
2019-03-03T10:57:54.392Z,1.60
2019-03-03T11:00:51.277Z,1.33
2019-03-03T11:03:31.470Z,1.40
2019-03-03T11:06:21.568Z,1.40
2019-03-03T11:09:30.178Z,1.40
2019-03-03T11:12:24.615Z,1.37
2019-03-03T11:15:33.498Z,1.27
2019-03-03T11:18:23.365Z,1.20
2019-03-03T11:21:15.383Z,2.03
2019-03-03T11:24:01.482Z,2.77
2019-03-03T11:26:59.827Z,2.70
2019-03-03T11:29:35.799Z,3.20
2019-03-03T11:32:15.043Z,3.47
2019-03-03T11:35:07.174Z,3.90
2019-03-03T11:38:14.951Z,4.47
2019-03-03T11:41:11.610Z,4.53
2019-03-03T11:44:00.944Z,4.07
2019-03-03T11:46:59.498Z,5.67
2019-03-03T11:49:35.585Z,6.30
2019-03-03T11:52:16.776Z,4.80
2019-03-03T11:54:55.930Z,6.00
2019-03-03T11:57:35.680Z,5.17
2019-03-03T12:00:24.822Z,5.33
2019-03-03T12:03:31.191Z,5.70
2019-03-03T12:06:15.801Z,5.40
2019-03-03T12:09:11.604Z,6.43
2019-03-03T12:12:10.631Z,6.00
2019-03-03T12:15:03.237Z,5.23
2019-03-03T12:17:55.661Z,6.20
2019-03-03T12:20:52.899Z,4.53
2019-03-03T12:23:57.345Z,5.63
2019-03-03T12:26:49.926Z,5.23
2019-03-03T12:29:35.887Z,5.50
2019-03-03T12:32:26.985Z,5.33
2019-03-03T12:35:03.310Z,5.60
2019-03-03T12:37:55.969Z,6.20
2019-03-03T12:40:44.057Z,7.07
2019-03-03T12:43:33.064Z,7.53
2019-03-03T12:46:25.525Z,6.83
2019-03-03T12:49:20.820Z,7.70
2019-03-03T12:52:09.664Z,6.57
2019-03-03T12:54:55.256Z,6.27
2019-03-03T12:57:37.761Z,6.67
2019-03-03T13:00:44.112Z,6.03
2019-03-03T13:03:24.914Z,5.93
2019-03-03T13:06:24.107Z,7.10
2019-03-03T13:09:14.735Z,8.27
2019-03-03T13:12:01.031Z,6.30
2019-03-03T13:15:00.122Z,6.73
2019-03-03T13:17:56.131Z,6.90
2019-03-03T13:20:37.153Z,6.07
2019-03-03T13:23:16.917Z,6.87
2019-03-03T13:26:08.992Z,5.93
2019-03-03T13:28:47.120Z,6.57
2019-03-03T13:31:42.678Z,7.27
2019-03-03T13:34:34.712Z,7.20
2019-03-03T13:37:14.930Z,7.53
2019-03-03T13:40:13.516Z,7.23
2019-03-03T13:43:02.907Z,6.30
2019-03-03T13:45:34.697Z,7.17
2019-03-03T13:48:06.390Z,7.63
2019-03-03T13:50:36.980Z,7.23
2019-03-03T13:53:07.688Z,6.90
2019-03-03T13:55:38.221Z,7.07
2019-03-03T13:58:08.640Z,7.20
2019-03-03T14:00:40.601Z,7.27
2019-03-03T14:03:10.945Z,7.07
2019-03-03T14:05:43.019Z,7.97
2019-03-03T14:08:13.567Z,7.33
2019-03-03T14:10:45.516Z,8.17
2019-03-03T14:13:15.920Z,7.10
2019-03-03T14:15:46.355Z,7.93
2019-03-03T14:18:16.926Z,7.70
2019-03-03T14:20:47.468Z,6.90
2019-03-03T14:23:20.890Z,7.50
2019-03-03T14:25:51.450Z,6.47
2019-03-03T14:28:22.032Z,7.87
2019-03-03T14:30:52.411Z,6.63
2019-03-03T14:33:22.840Z,7.33
2019-03-03T14:35:53.265Z,7.27
2019-03-03T14:38:23.652Z,7.60
2019-03-03T14:40:54.027Z,8.23
2019-03-03T14:43:24.614Z,6.73
2019-03-03T14:45:57.996Z,8.37
2019-03-03T14:48:28.883Z,7.20
2019-03-03T14:50:59.830Z,7.50
2019-03-03T14:53:30.292Z,7.40
2019-03-03T14:56:02.187Z,6.80
2019-03-03T14:58:35.782Z,7.13
2019-03-03T15:01:06.408Z,6.83
2019-03-03T15:03:43.441Z,6.80
2019-03-03T15:06:23.984Z,7.90
2019-03-03T15:08:47.532Z,6.07
2019-03-03T15:11:20.307Z,6.23
2019-03-03T15:13:50.836Z,6.93
2019-03-03T15:16:28.471Z,7.03
2019-03-03T15:18:58.967Z,8.03
2019-03-03T15:21:30.066Z,6.77
2019-03-03T15:24:00.691Z,7.23
2019-03-03T15:26:37.406Z,7.20
2019-03-03T15:29:08.236Z,6.57
2019-03-03T15:31:40.405Z,7.33
2019-03-03T15:34:14.400Z,7.10
2019-03-03T15:36:50.244Z,7.75
2019-03-03T15:39:28.541Z,6.73
2019-03-03T15:41:59.071Z,7.40
2019-03-03T15:44:29.595Z,6.53
2019-03-03T15:47:00.306Z,8.07
2019-03-03T15:49:40.131Z,6.57
2019-03-03T15:52:18.063Z,6.50
2019-03-03T15:54:51.858Z,6.60
2019-03-03T15:57:23.284Z,5.97
2019-03-03T15:59:53.871Z,7.10
2019-03-03T16:02:30.994Z,7.23
2019-03-03T16:05:06.624Z,6.70
2019-03-03T16:07:37.224Z,6.30
2019-03-03T16:10:10.241Z,6.50
2019-03-03T16:12:42.141Z,7.73
2019-03-03T16:15:14.073Z,6.87
2019-03-03T16:17:44.507Z,6.97
2019-03-03T16:20:18.048Z,6.40
2019-03-03T16:22:49.990Z,6.13
2019-03-03T16:25:22.745Z,7.30
2019-03-03T16:27:53.224Z,5.27
2019-03-03T16:30:23.768Z,6.37
2019-03-03T16:32:57.055Z,6.80
2019-03-03T16:35:27.624Z,6.33
2019-03-03T16:37:58.172Z,5.40
2019-03-03T16:40:39.013Z,6.20
2019-03-03T16:43:01.885Z,6.73
2019-03-03T16:45:32.826Z,6.50
2019-03-03T16:48:03.705Z,7.27
2019-03-03T16:50:33.997Z,7.17
2019-03-03T16:53:05.217Z,6.90
2019-03-03T16:55:35.763Z,5.97
2019-03-03T16:58:06.340Z,5.83
2019-03-03T17:00:36.700Z,6.07
2019-03-03T17:03:07.140Z,6.60
2019-03-03T17:05:37.774Z,6.40
2019-03-03T17:08:08.218Z,6.20
2019-03-03T17:10:38.705Z,5.57
2019-03-03T17:13:14.978Z,7.20
2019-03-03T17:15:45.402Z,5.87
2019-03-03T17:18:15.889Z,5.77
2019-03-03T17:20:46.376Z,6.10
2019-03-03T17:23:16.973Z,4.93
2019-03-03T17:25:47.476Z,5.57
2019-03-03T17:28:17.905Z,6.23
2019-03-03T17:30:48.363Z,6.30
2019-03-03T17:33:18.742Z,5.20
2019-03-03T17:35:49.183Z,5.27
2019-03-03T17:38:19.774Z,5.00
2019-03-03T17:40:50.151Z,5.30
2019-03-03T17:43:20.567Z,5.13
2019-03-03T17:45:50.966Z,4.70
2019-03-03T17:48:21.424Z,4.97
2019-03-03T17:50:51.853Z,5.63
2019-03-03T17:53:23.232Z,5.13
2019-03-03T17:55:56.190Z,4.17
2019-03-03T17:58:29.712Z,5.00
2019-03-03T18:01:00.151Z,6.17
2019-03-03T18:03:30.615Z,5.07
2019-03-03T18:06:00.998Z,5.10
2019-03-03T18:08:31.483Z,4.63
2019-03-03T18:11:04.211Z,5.47
2019-03-03T18:13:34.602Z,5.40
2019-03-03T18:16:04.954Z,5.83
2019-03-03T18:18:35.321Z,5.57
2019-03-03T18:21:05.783Z,5.93
2019-03-03T18:23:37.686Z,6.33
2019-03-03T18:26:08.040Z,5.80
2019-03-03T18:28:38.881Z,6.67
2019-03-03T18:31:09.512Z,7.10
2019-03-03T18:33:40.225Z,7.20
2019-03-03T18:36:11.758Z,6.63
2019-03-03T18:38:42.193Z,7.40
2019-03-03T18:41:12.758Z,6.80
2019-03-03T18:43:43.292Z,6.60
2019-03-03T18:46:29.435Z,6.53
2019-03-03T18:49:00.100Z,8.13
2019-03-03T18:51:33.637Z,8.10
2019-03-03T18:54:04.073Z,7.87
2019-03-03T18:56:34.854Z,7.90
2019-03-03T18:59:05.315Z,7.80
2019-03-03T19:01:35.695Z,8.00
2019-03-03T19:04:06.017Z,7.63
2019-03-03T19:06:36.462Z,8.30
2019-03-03T19:09:12.812Z,6.97
2019-03-03T19:11:43.828Z,8.13
2019-03-03T19:14:14.257Z,7.20
2019-03-03T19:16:44.591Z,7.90
2019-03-03T19:19:14.973Z,8.07
2019-03-03T19:21:45.257Z,8.83
2019-03-03T19:24:15.582Z,9.53
2019-03-03T19:26:45.999Z,8.67
2019-03-03T19:29:17.041Z,9.73
2019-03-03T19:31:48.422Z,11.73
2019-03-03T19:34:19.515Z,11.63
2019-03-03T19:36:49.877Z,11.73
2019-03-03T19:39:20.315Z,10.93
2019-03-03T19:41:50.877Z,10.17
2019-03-03T19:44:24.444Z,10.50
2019-03-03T19:46:54.734Z,10.77
2019-03-03T19:49:25.036Z,11.03
2019-03-03T19:51:55.521Z,10.83
2019-03-03T19:54:27.512Z,10.20
2019-03-03T19:56:57.869Z,10.80
2019-03-03T19:59:28.394Z,10.83
2019-03-03T20:01:58.760Z,10.63
2019-03-03T20:04:29.123Z,11.57
2019-03-03T20:06:59.491Z,10.90
2019-03-03T20:09:30.560Z,10.20
2019-03-03T20:12:00.978Z,9.27
2019-03-03T20:14:31.349Z,8.20
2019-03-03T20:17:02.788Z,10.23
2019-03-03T20:19:34.739Z,7.50
2019-03-03T20:22:05.065Z,6.93
2019-03-03T20:24:37.117Z,5.90
2019-03-03T20:27:07.375Z,6.20
2019-03-03T20:29:37.839Z,4.80
2019-03-03T20:32:08.375Z,4.57
2019-03-03T20:34:38.841Z,4.67
2019-03-03T20:37:10.157Z,4.50
2019-03-03T20:39:41.327Z,3.73
2019-03-03T20:42:13.636Z,4.27
2019-03-03T20:44:45.271Z,3.97
2019-03-03T20:47:15.632Z,3.60
2019-03-03T20:49:46.046Z,3.40
2019-03-03T20:52:16.504Z,3.57
2019-03-03T20:54:46.790Z,2.77
2019-03-03T20:57:17.279Z,3.53
2019-03-03T20:59:47.622Z,3.10
2019-03-03T21:02:18.564Z,3.27
2019-03-03T21:04:48.990Z,3.33
2019-03-03T21:07:19.886Z,2.87
2019-03-03T21:09:50.184Z,3.20
2019-03-03T21:12:20.474Z,3.00
2019-03-03T21:14:50.828Z,3.30
2019-03-03T21:17:21.258Z,2.80
2019-03-03T21:19:51.692Z,2.70
2019-03-03T21:22:22.006Z,2.90
2019-03-03T21:24:52.611Z,3.27
2019-03-03T21:27:22.921Z,2.53
2019-03-03T21:29:53.382Z,3.37
2019-03-03T21:32:23.852Z,3.30
2019-03-03T21:34:54.360Z,2.67
2019-03-03T21:37:24.705Z,2.67
2019-03-03T21:39:55.001Z,3.00
2019-03-03T21:42:25.727Z,3.40
2019-03-03T21:44:56.234Z,2.70
2019-03-03T21:47:27.765Z,2.97
2019-03-03T21:49:58.247Z,2.50
2019-03-03T21:52:28.580Z,2.97
2019-03-03T21:54:58.903Z,3.00
2019-03-03T21:57:29.837Z,3.20
2019-03-03T22:00:00.325Z,3.20
2019-03-03T22:02:31.475Z,2.90
2019-03-03T22:05:02.940Z,3.17
2019-03-03T22:07:35.409Z,3.23
2019-03-03T22:10:06.237Z,2.80
2019-03-03T22:12:37.630Z,2.43
2019-03-03T22:15:09.577Z,2.50
2019-03-03T22:17:47.331Z,2.90
2019-03-03T22:20:17.680Z,3.10
2019-03-03T22:22:48.069Z,3.07
2019-03-03T22:25:18.411Z,3.30
2019-03-03T22:27:58.227Z,3.20
2019-03-03T22:30:29.290Z,2.63
2019-03-03T22:32:59.713Z,2.90
2019-03-03T22:35:30.171Z,2.87
2019-03-03T22:38:00.669Z,3.00
2019-03-03T22:40:36.218Z,3.30
2019-03-03T22:43:09.573Z,3.27
2019-03-03T22:45:41.194Z,2.73
2019-03-03T22:48:11.574Z,3.00
2019-03-03T22:50:43.646Z,2.53
2019-03-03T22:53:14.447Z,3.50
2019-03-03T22:55:44.926Z,3.50
2019-03-03T22:58:16.714Z,3.00
2019-03-03T23:01:18.564Z,3.00
2019-03-03T23:04:25.965Z,2.90
2019-03-03T23:07:11.063Z,2.93
2019-03-03T23:10:19.384Z,2.70
2019-03-03T23:13:05.064Z,2.70
2019-03-03T23:16:00.090Z,2.90
2019-03-03T23:19:06.121Z,2.70
2019-03-03T23:22:24.005Z,3.60
2019-03-03T23:25:44.943Z,2.77
2019-03-03T23:28:17.240Z,3.50
2019-03-03T23:30:47.943Z,3.77
2019-03-03T23:33:19.401Z,4.33
2019-03-03T23:35:50.143Z,4.40
2019-03-03T23:38:22.179Z,4.23
2019-03-03T23:40:52.545Z,4.67
2019-03-03T23:43:23.296Z,4.67
2019-03-03T23:45:53.828Z,4.33
2019-03-03T23:48:24.306Z,4.40
2019-03-03T23:50:54.641Z,4.17
2019-03-03T23:53:26.125Z,3.90
2019-03-03T23:55:56.492Z,3.70
2019-03-03T23:58:26.965Z,3.30
